Time;durP1;ratioP1;P1;durP2;ratioP2;P2;SDS_P1;SDS_P2;PMS_P1;PMS_P2;Temp;Humidity;BMP_temperature;BMP_pressure;BME280_temperature;BME280_humidity;BME280_pressure;Samples;Min_cycle;Max_cycle;Signal;HPM_P1;HPM_P2
2022/09/25 00:00:42;;;;;;;6.65;3.35;;;;;;;;;;5093537;28;20016;-66
2022/09/25 00:03:09;;;;;;;8.65;3.85;;;;;;;;;;5075391;28;20028;-67
2022/09/25 00:05:36;;;;;;;6.72;3.55;;;;;;;;;;5093137;28;20020;-67
2022/09/25 00:08:03;;;;;;;5.85;3.33;;;;;;;;;;5093247;28;20040;-66
2022/09/25 00:10:29;;;;;;;6.75;3.38;;;;;;;;;;5075361;28;20024;-66
2022/09/25 00:12:55;;;;;;;6.90;3.55;;;;;;;;;;5093102;28;20024;-66
2022/09/25 00:15:22;;;;;;;6.03;3.60;;;;;;;;;;5093387;28;20032;-67
2022/09/25 00:17:48;;;;;;;6.95;3.42;;;;;;;;;;5093875;28;20074;-67
2022/09/25 00:20:16;;;;;;;7.13;3.70;;;;;;;;;;5074892;28;20056;-66
2022/09/25 00:22:42;;;;;;;6.15;3.58;;;;;;;;;;5075274;28;20476;-66
2022/09/25 00:25:13;;;;;;;6.72;3.42;;;;;;;;;;5075293;28;20129;-67
2022/09/25 00:27:39;;;;;;;5.63;3.30;;;;;;;;;;5092825;28;20060;-66
2022/09/25 00:30:06;;;;;;;5.95;3.40;;;;;;;;;;5093310;28;20058;-66
2022/09/25 00:32:32;;;;;;;6.75;3.28;;;;;;;;;;5093876;28;20468;-66
2022/09/25 00:34:58;;;;;;;5.47;3.15;;;;;;;;;;5092977;28;20027;-66
2022/09/25 00:37:27;;;;;;;6.50;3.40;;;;;;;;;;5093333;28;20032;-65
2022/09/25 00:39:54;;;;;;;6.00;2.83;;;;;;;;;;5093197;28;20031;-66
2022/09/25 00:42:21;;;;;;;5.45;3.15;;;;;;;;;;5092841;28;20487;-66
2022/09/25 00:44:47;;;;;;;6.82;3.13;;;;;;;;;;5093124;28;20495;-65
2022/09/25 00:47:17;;;;;;;5.47;3.35;;;;;;;;;;5092786;28;20036;-66
2022/09/25 00:49:44;;;;;;;9.20;3.80;;;;;;;;;;5075071;28;20552;-65
2022/09/25 00:52:14;;;;;;;7.05;3.72;;;;;;;;;;5093149;28;20023;-67
2022/09/25 00:54:44;;;;;;;7.65;3.70;;;;;;;;;;5075622;28;20491;-66
2022/09/25 00:57:12;;;;;;;7.18;3.72;;;;;;;;;;5078706;28;20020;-66
2022/09/25 00:59:41;;;;;;;6.53;3.35;;;;;;;;;;5096865;28;20028;-66
2022/09/25 01:02:08;;;;;;;6.13;3.53;;;;;;;;;;5078309;28;20059;-66
2022/09/25 01:04:36;;;;;;;7.00;3.45;;;;;;;;;;5096849;28;20537;-66
2022/09/25 01:07:03;;;;;;;6.70;3.08;;;;;;;;;;5096850;28;20495;-66
2022/09/25 01:09:29;;;;;;;7.82;3.53;;;;;;;;;;5096054;28;20484;-66
2022/09/25 01:11:55;;;;;;;5.45;3.22;;;;;;;;;;5078423;28;20526;-66
2022/09/25 01:14:22;;;;;;;6.22;3.47;;;;;;;;;;5096525;28;20072;-66
2022/09/25 01:16:52;;;;;;;5.13;2.95;;;;;;;;;;5096071;28;20074;-66
2022/09/25 01:19:37;;;;;;;6.15;3.47;;;;;;;;;;5096560;28;20016;-66
2022/09/25 01:22:20;;;;;;;5.60;2.97;;;;;;;;;;5096418;28;20081;-66
2022/09/25 01:24:57;;;;;;;6.07;3.35;;;;;;;;;;5096459;28;20031;-66
2022/09/25 01:27:40;;;;;;;6.60;3.15;;;;;;;;;;5096507;28;20361;-66
2022/09/25 01:30:13;;;;;;;6.20;3.20;;;;;;;;;;5096005;28;20032;-67
2022/09/25 01:32:57;;;;;;;4.78;3.10;;;;;;;;;;5096261;28;20027;-66
2022/09/25 01:35:23;;;;;;;;;;;;;;;;;;5078581;28;20098;-66
2022/09/25 01:38:03;;;;;;;6.13;3.63;;;;;;;;;;5077505;28;19943;-66
2022/09/25 01:40:32;;;;;;;4.97;3.22;;;;;;;;;;5096187;28;20019;-66
2022/09/25 01:43:07;;;;;;;5.38;3.25;;;;;;;;;;5095974;28;20032;-66
2022/09/25 01:45:38;;;;;;;6.07;3.30;;;;;;;;;;5095644;28;20027;-66
2022/09/25 01:48:06;;;;;;;6.43;3.38;;;;;;;;;;5095825;28;20032;-65
2022/09/25 01:50:39;;;;;;;6.97;3.53;;;;;;;;;;5095531;28;20507;-65
2022/09/25 01:53:08;;;;;;;6.90;3.90;;;;;;;;;;5095845;28;20423;-65
2022/09/25 01:55:41;;;;;;;7.95;3.50;;;;;;;;;;5095870;28;20036;-66
2022/09/25 01:58:13;;;;;;;5.15;3.13;;;;;;;;;;5095366;28;20031;-65
2022/09/25 02:00:42;;;;;;;5.90;3.47;;;;;;;;;;5095875;28;20057;-66
2022/09/25 02:03:11;;;;;;;5.05;2.97;;;;;;;;;;5095701;28;20023;-66
2022/09/25 02:05:41;;;;;;;7.95;3.83;;;;;;;;;;5077145;28;20413;-66
2022/09/25 02:08:10;;;;;;;6.55;3.33;;;;;;;;;;5095327;28;20408;-66
2022/09/25 02:10:43;;;;;;;6.38;3.47;;;;;;;;;;5095421;28;20031;-65
2022/09/25 02:13:16;;;;;;;5.75;3.70;;;;;;;;;;5095252;28;20027;-66
2022/09/25 02:15:48;;;;;;;6.30;3.00;;;;;;;;;;5095417;28;20040;-66
2022/09/25 02:21:08;;;;;;;8.02;3.55;;;;;;;;;;5095652;28;20043;-66
2022/09/25 02:23:39;;;;;;;5.63;3.30;;;;;;;;;;5095630;28;20122;-66
2022/09/25 02:26:07;;;;;;;7.07;3.53;;;;;;;;;;5094919;28;20031;-66
2022/09/25 02:28:34;;;;;;;6.35;3.25;;;;;;;;;;5095218;28;20032;-66
2022/09/25 02:31:02;;;;;;;6.68;3.25;;;;;;;;;;5095075;28;20387;-66
2022/09/25 02:33:29;;;;;;;6.10;3.33;;;;;;;;;;5076556;28;20024;-66
2022/09/25 02:35:56;;;;;;;5.35;3.22;;;;;;;;;;5095271;28;20028;-67
2022/09/25 02:38:22;;;;;;;5.25;3.30;;;;;;;;;;5094987;28;20027;-66
2022/09/25 02:40:54;;;;;;;5.13;2.92;;;;;;;;;;5094611;28;20020;-66
2022/09/25 02:43:39;;;;;;;6.88;3.30;;;;;;;;;;5095037;28;20050;-66
2022/09/25 02:46:29;;;;;;;5.15;3.17;;;;;;;;;;5095041;28;20023;-66
2022/09/25 02:49:12;;;;;;;7.55;3.50;;;;;;;;;;5076244;28;20043;-66
2022/09/25 02:51:38;;;;;;;;;;;;;;;;;;5095588;28;20028;-66
2022/09/25 02:54:08;;;;;;;5.95;3.50;;;;;;;;;;5094260;28;20002;-65
2022/09/25 02:56:44;;;;;;;5.68;3.22;;;;;;;;;;5095202;28;20140;-66
2022/09/25 02:59:20;;;;;;;6.15;3.38;;;;;;;;;;5094696;28;20021;-66
2022/09/25 03:01:46;;;;;;;6.25;3.28;;;;;;;;;;5094234;28;20028;-65
2022/09/25 03:04:13;;;;;;;5.85;3.38;;;;;;;;;;5076267;28;20357;-65
2022/09/25 03:06:40;;;;;;;5.80;3.47;;;;;;;;;;5094440;28;20476;-65
2022/09/25 03:09:07;;;;;;;6.63;3.33;;;;;;;;;;5075571;28;20495;-66
2022/09/25 03:11:39;;;;;;;7.72;3.85;;;;;;;;;;5076230;28;20020;-65
2022/09/25 03:14:05;;;;;;;10.77;4.55;;;;;;;;;;5094478;28;20107;-66
2022/09/25 03:16:50;;;;;;;7.18;3.90;;;;;;;;;;5075790;28;20547;-65
2022/09/25 03:19:18;;;;;;;6.68;3.25;;;;;;;;;;5094181;28;20025;-66
2022/09/25 03:21:45;;;;;;;6.00;3.30;;;;;;;;;;5094212;28;20020;-66
2022/09/25 03:24:11;;;;;;;7.82;3.83;;;;;;;;;;5094073;28;20099;-65
2022/09/25 03:26:39;;;;;;;6.03;3.60;;;;;;;;;;5075982;28;20543;-66
2022/09/25 03:29:05;;;;;;;6.70;3.63;;;;;;;;;;5093594;28;20044;-66
2022/09/25 03:31:32;;;;;;;6.63;3.55;;;;;;;;;;5094005;28;20032;-66
2022/09/25 03:33:59;;;;;;;7.18;3.42;;;;;;;;;;5094154;28;20384;-65
2022/09/25 03:36:27;;;;;;;5.80;3.40;;;;;;;;;;5093506;28;20471;-66
2022/09/25 03:38:56;;;;;;;7.03;3.80;;;;;;;;;;5093908;28;20028;-65
2022/09/25 03:41:23;;;;;;;10.25;4.15;;;;;;;;;;5093833;28;20021;-65
2022/09/25 03:43:50;;;;;;;7.18;3.92;;;;;;;;;;5093433;28;20024;-66
2022/09/25 03:46:17;;;;;;;6.38;3.45;;;;;;;;;;5093899;28;20012;-65
2022/09/25 03:48:43;;;;;;;6.78;3.05;;;;;;;;;;5093865;28;20472;-66
2022/09/25 03:51:10;;;;;;;6.38;3.30;;;;;;;;;;5093452;28;20046;-65
2022/09/25 03:53:36;;;;;;;7.55;4.13;;;;;;;;;;5093661;28;20102;-65
2022/09/25 03:56:05;;;;;;;7.07;3.67;;;;;;;;;;5093693;28;20031;-65
2022/09/25 03:58:32;;;;;;;6.50;3.65;;;;;;;;;;5093309;28;20085;-65
2022/09/25 04:00:58;;;;;;;9.20;3.70;;;;;;;;;;5093662;28;20099;-65
2022/09/25 04:03:28;;;;;;;7.63;3.75;;;;;;;;;;5093593;28;20099;-65
2022/09/25 04:05:55;;;;;;;7.22;3.63;;;;;;;;;;5093376;28;20479;-65
2022/09/25 04:08:24;;;;;;;7.60;4.43;;;;;;;;;;5075132;28;20056;-65
2022/09/25 04:10:50;;;;;;;10.10;4.57;;;;;;;;;;5093469;28;20102;-65
2022/09/25 04:13:18;;;;;;;7.40;4.70;;;;;;;;;;5093063;28;20024;-65
2022/09/25 04:15:45;;;;;;;6.10;3.78;;;;;;;;;;5075300;28;20024;-66
2022/09/25 04:18:11;;;;;;;7.15;4.07;;;;;;;;;;5093309;28;20118;-66
2022/09/25 04:20:37;;;;;;;8.50;3.90;;;;;;;;;;5093476;28;20020;-65
2022/09/25 04:23:03;;;;;;;8.93;4.25;;;;;;;;;;5093480;28;20020;-65
2022/09/25 04:25:30;;;;;;;7.63;3.95;;;;;;;;;;5093033;28;20020;-66
2022/09/25 04:27:57;;;;;;;7.57;3.95;;;;;;;;;;5075221;28;20474;-66
2022/09/25 04:30:24;;;;;;;6.30;4.15;;;;;;;;;;5095904;28;20024;-65
2022/09/25 04:35:35;;;;;;;8.15;4.28;;;;;;;;;;5097683;28;20498;-65
2022/09/25 04:38:01;;;;;;;9.25;3.80;;;;;;;;;;5097303;28;20357;-65
2022/09/25 04:40:28;;;;;;;9.77;4.53;;;;;;;;;;5096849;28;20024;-66
2022/09/25 04:42:58;;;;;;;8.45;4.18;;;;;;;;;;5097168;28;20024;-65
2022/09/25 04:45:25;;;;;;;8.55;4.50;;;;;;;;;;5097264;28;20027;-65
2022/09/25 04:47:53;;;;;;;7.30;4.05;;;;;;;;;;5096834;28;20078;-65
2022/09/25 04:50:19;;;;;;;8.43;4.70;;;;;;;;;;5097097;28;20082;-65
2022/09/25 04:52:45;;;;;;;8.07;4.18;;;;;;;;;;5096998;28;20020;-65
2022/09/25 04:55:12;;;;;;;7.40;3.75;;;;;;;;;;5078686;28;20024;-65
2022/09/25 04:57:38;;;;;;;7.43;3.97;;;;;;;;;;5078793;28;20016;-65
2022/09/25 05:00:05;;;;;;;7.50;3.40;;;;;;;;;;5096937;28;20070;-66
2022/09/25 05:02:31;;;;;;;5.20;3.28;;;;;;;;;;5096483;28;20434;-65
2022/09/25 05:04:57;;;;;;;6.22;3.30;;;;;;;;;;5097066;28;20070;-65
2022/09/25 05:07:23;;;;;;;8.43;4.40;;;;;;;;;;5096189;28;20027;-66
2022/09/25 05:09:49;;;;;;;7.30;3.83;;;;;;;;;;5097013;28;20047;-65
2022/09/25 05:12:15;;;;;;;7.30;4.15;;;;;;;;;;5078592;28;20017;-66
2022/09/25 05:14:41;;;;;;;7.43;4.38;;;;;;;;;;5096221;28;20029;-65
2022/09/25 05:17:10;;;;;;;9.40;4.90;;;;;;;;;;5096554;28;20498;-65
2022/09/25 05:19:36;;;;;;;6.80;4.22;;;;;;;;;;5096528;28;20017;-65
2022/09/25 05:22:02;;;;;;;7.50;4.65;;;;;;;;;;5077967;28;20028;-65
2022/09/25 05:24:30;;;;;;;9.70;5.68;;;;;;;;;;5096655;28;20055;-66
2022/09/25 05:26:56;;;;;;;8.57;4.88;;;;;;;;;;5096644;28;20048;-66
2022/09/25 05:29:22;;;;;;;8.27;5.20;;;;;;;;;;5095841;28;20041;-65
2022/09/25 05:31:49;;;;;;;7.82;4.75;;;;;;;;;;5096314;28;20024;-66
2022/09/25 05:34:15;;;;;;;13.55;5.57;;;;;;;;;;5078027;28;20122;-66
2022/09/25 05:36:42;;;;;;;8.90;4.63;;;;;;;;;;5095866;28;20028;-66
2022/09/25 05:39:11;;;;;;;13.52;5.25;;;;;;;;;;5096353;28;20043;-66
2022/09/25 05:41:37;;;;;;;9.38;4.63;;;;;;;;;;5095648;28;20384;-66
2022/09/25 05:44:08;;;;;;;10.77;5.18;;;;;;;;;;5096033;28;20062;-66
2022/09/25 05:46:37;;;;;;;13.82;6.38;;;;;;;;;;5096368;28;20424;-67
2022/09/25 05:49:04;;;;;;;10.82;5.43;;;;;;;;;;5095913;28;20505;-66
2022/09/25 05:51:31;;;;;;;13.43;7.25;;;;;;;;;;5095473;28;20024;-65
2022/09/25 05:53:59;;;;;;;13.38;6.43;;;;;;;;;;5095841;28;20028;-66
2022/09/25 05:56:25;;;;;;;13.00;6.15;;;;;;;;;;5095821;28;20061;-66
2022/09/25 05:58:51;;;;;;;11.63;5.65;;;;;;;;;;5095900;28;20507;-66
2022/09/25 06:01:18;;;;;;;10.57;5.50;;;;;;;;;;5095674;28;20020;-66
2022/09/25 06:03:44;;;;;;;13.27;6.78;;;;;;;;;;5095300;28;20038;-66
2022/09/25 06:06:11;;;;;;;9.95;4.80;;;;;;;;;;5095627;28;20030;-66
2022/09/25 06:08:37;;;;;;;9.88;5.13;;;;;;;;;;5077182;28;20048;-66
2022/09/25 06:11:04;;;;;;;10.75;5.22;;;;;;;;;;5095146;28;20024;-66
2022/09/25 06:13:32;;;;;;;11.07;6.10;;;;;;;;;;5095694;28;20024;-66
2022/09/25 06:15:58;;;;;;;11.70;5.10;;;;;;;;;;5077269;28;20020;-66
2022/09/25 06:18:25;;;;;;;12.80;5.60;;;;;;;;;;5094875;28;20036;-66
2022/09/25 06:20:51;;;;;;;11.60;6.15;;;;;;;;;;5095294;28;20066;-66
2022/09/25 06:23:18;;;;;;;18.70;6.97;;;;;;;;;;5095354;28;20095;-66
2022/09/25 06:25:44;;;;;;;11.10;4.88;;;;;;;;;;5076854;28;20028;-66
2022/09/25 06:28:11;;;;;;;10.30;5.03;;;;;;;;;;5095116;28;20085;-66
2022/09/25 06:30:37;;;;;;;10.13;5.03;;;;;;;;;;5077030;28;20027;-66
2022/09/25 06:33:06;;;;;;;9.48;4.88;;;;;;;;;;5094855;28;20016;-66
2022/09/25 06:35:36;;;;;;;8.43;4.25;;;;;;;;;;5094922;28;20349;-66
2022/09/25 06:38:03;;;;;;;10.38;5.63;;;;;;;;;;5095103;28;20054;-66
2022/09/25 06:40:30;;;;;;;10.43;4.72;;;;;;;;;;5094676;28;20024;-67
2022/09/25 06:42:57;;;;;;;11.30;6.10;;;;;;;;;;5094885;28;20097;-68
2022/09/25 06:45:23;;;;;;;11.65;4.90;;;;;;;;;;5094894;28;20472;-66
2022/09/25 06:47:50;;;;;;;10.95;6.18;;;;;;;;;;5094383;28;20373;-66
2022/09/25 06:50:16;;;;;;;10.27;5.63;;;;;;;;;;5076680;28;20376;-66
2022/09/25 06:52:42;;;;;;;11.40;5.47;;;;;;;;;;5093584;28;20020;-66
2022/09/25 06:55:09;;;;;;;13.50;5.68;;;;;;;;;;5094586;28;20031;-66
2022/09/25 06:57:36;;;;;;;15.77;6.10;;;;;;;;;;5094513;28;20402;-66
2022/09/25 07:00:06;;;;;;;15.02;8.15;;;;;;;;;;5094074;28;20131;-67
2022/09/25 07:05:17;;;;;;;10.68;5.43;;;;;;;;;;5094499;28;20089;-66
2022/09/25 07:07:45;;;;;;;9.70;5.10;;;;;;;;;;5093771;28;20067;-66
2022/09/25 07:10:11;;;;;;;8.05;4.25;;;;;;;;;;5094413;28;20028;-66
2022/09/25 07:12:40;;;;;;;6.10;3.45;;;;;;;;;;5094902;28;20020;-66
2022/09/25 07:17:54;;;;;;;10.93;5.47;;;;;;;;;;5111898;27;20393;-67
2022/09/25 07:21:06;;;;;;;8.68;3.90;;;;;;;;;;5111054;27;20859;-67
2022/09/25 07:23:32;;;;;;;8.38;3.97;;;;;;;;;;5111265;28;20069;-67
2022/09/25 07:27:05;;;;;;;8.35;3.67;;;;;;;;;;5173829;27;20114;-67
2022/09/25 07:31:14;;;;;;;6.70;3.20;;;;;;;;;;5051340;28;20417;-67
2022/09/25 07:34:11;;;;;;;5.88;3.30;;;;;;;;;;5111940;27;20443;-65
2022/09/25 07:37:19;;;;;;;5.47;2.55;;;;;;;;;;5071086;28;20411;-65
2022/09/25 07:39:59;;;;;;;6.63;2.55;;;;;;;;;;5173845;27;20110;-67
2022/09/25 07:43:19;;;;;;;6.35;3.30;;;;;;;;;;5111191;27;20454;-65
2022/09/25 07:46:27;;;;;;;6.47;3.00;;;;;;;;;;5111648;27;20965;-67
2022/09/25 07:51:47;;;;;;;15.32;7.82;;;;;;;;;;5111906;27;20418;-67
2022/09/25 07:54:13;;;;;;;6.90;2.78;;;;;;;;;;5111384;28;20503;-67
2022/09/25 07:56:39;;;;;;;5.50;2.90;;;;;;;;;;5110914;28;20028;-67
2022/09/25 08:01:01;;;;;;;8.38;3.00;;;;;;;;;;5111850;27;20392;-67
2022/09/25 08:04:10;;;;;;;6.88;3.25;;;;;;;;;;5111376;27;20400;-67
2022/09/25 08:06:37;;;;;;;5.60;2.90;;;;;;;;;;5109931;28;20066;-67
2022/09/25 08:09:03;;;;;;;5.35;2.65;;;;;;;;;;5111304;28;20054;-67
2022/09/25 08:11:30;;;;;;;4.28;2.35;;;;;;;;;;5110839;28;20020;-66
2022/09/25 08:14:51;;;;;;;4.43;2.70;;;;;;;;;;5111397;27;20422;-66
2022/09/25 08:17:18;;;;;;;7.18;2.60;;;;;;;;;;5110890;28;20028;-66
2022/09/25 08:20:00;;;;;;;6.57;3.08;;;;;;;;;;5111602;27;20434;-67
2022/09/25 08:22:26;;;;;;;5.30;2.95;;;;;;;;;;5110671;28;20059;-67
2022/09/25 08:24:52;;;;;;;4.78;2.70;;;;;;;;;;5110890;28;20111;-67
2022/09/25 08:27:19;;;;;;;5.40;2.97;;;;;;;;;;5111242;28;20020;-67
2022/09/25 08:29:45;;;;;;;5.78;3.08;;;;;;;;;;5111147;28;20043;-67
2022/09/25 08:34:55;;;;;;;4.82;2.78;;;;;;;;;;5111720;27;20393;-67
2022/09/25 08:37:21;;;;;;;4.13;2.95;;;;;;;;;;5111346;28;20027;-66
2022/09/25 08:39:47;;;;;;;10.63;3.22;;;;;;;;;;5109589;28;20092;-66
2022/09/25 08:42:28;;;;;;;7.10;3.42;;;;;;;;;;5111275;28;20030;-66
2022/09/25 08:52:16;;;;;;;4.40;2.88;;;;;;;;;;5111816;27;20397;-65
2022/09/25 08:54:43;;;;;;;6.28;3.00;;;;;;;;;;5110011;28;20058;-65
2022/09/25 09:00:48;;;;;;;4.93;2.72;;;;;;;;;;5070601;28;20384;-65
2022/09/25 09:03:15;;;;;;;734.78;616.60;;;;;;;;;;5070688;28;20027;-67
2022/09/25 09:05:45;;;;;;;163.50;146.02;;;;;;;;;;5070661;28;20097;-67
2022/09/25 09:08:24;;;;;;;6.15;3.20;;;;;;;;;;5070541;28;20451;-65
2022/09/25 09:11:11;;;;;;;5.05;2.70;;;;;;;;;;5070682;28;20104;-65
2022/09/25 09:14:15;;;;;;;5.55;2.85;;;;;;;;;;5111302;27;20454;-68
2022/09/25 09:17:02;;;;;;;5.85;2.90;;;;;;;;;;5111238;28;20395;-65
2022/09/25 09:21:34;;;;;;;5.18;3.05;;;;;;;;;;5111044;27;20393;-66
2022/09/25 09:24:06;;;;;;;5.15;2.92;;;;;;;;;;5109993;28;20028;-66
2022/09/25 09:27:25;;;;;;;5.68;3.10;;;;;;;;;;5111319;27;20836;-66
2022/09/25 09:30:26;;;;;;;8.02;3.25;;;;;;;;;;5111264;28;20024;-67
2022/09/25 09:34:59;;;;;;;5.78;3.35;;;;;;;;;;5111501;27;20462;-66
2022/09/25 09:37:43;;;;;;;7.57;3.05;;;;;;;;;;5072794;28;20062;-66
2022/09/25 09:44:01;;;;;;;7.55;2.83;;;;;;;;;;5111751;27;20469;-66
2022/09/25 09:47:01;;;;;;;7.05;3.00;;;;;;;;;;5111402;28;20024;-67
2022/09/25 09:49:37;;;;;;;5.47;3.00;;;;;;;;;;5077756;28;20118;-65
2022/09/25 09:52:09;;;;;;;5.22;2.42;;;;;;;;;;5109855;28;20360;-66
2022/09/25 09:54:51;;;;;;;8.30;2.88;;;;;;;;;;5111260;28;20085;-66
2022/09/25 09:57:22;;;;;;;6.97;2.70;;;;;;;;;;5109740;28;20059;-66
2022/09/25 09:59:51;;;;;;;5.68;2.70;;;;;;;;;;5111236;28;20031;-66
2022/09/25 10:04:01;;;;;;;4.90;2.67;;;;;;;;;;5111039;27;20139;-65
2022/09/25 10:06:29;;;;;;;10.25;3.20;;;;;;;;;;5111300;28;20164;-66
2022/09/25 10:08:55;;;;;;;6.45;3.13;;;;;;;;;;5111378;28;20107;-66
2022/09/25 10:13:48;;;;;;;5.53;2.63;;;;;;;;;;5111769;27;20792;-67
2022/09/25 10:16:19;;;;;;;4.22;2.47;;;;;;;;;;5109931;28;20502;-66
2022/09/25 10:20:56;;;;;;;6.90;3.08;;;;;;;;;;5111537;27;21014;-67
2022/09/25 10:23:35;;;;;;;4.50;2.38;;;;;;;;;;5111276;28;20492;-68
2022/09/25 10:26:37;;;;;;;4.90;2.55;;;;;;;;;;5091141;27;20929;-66
2022/09/25 10:29:06;;;;;;;4.57;2.50;;;;;;;;;;5089922;28;20028;-66
2022/09/25 10:31:34;;;;;;;6.05;3.28;;;;;;;;;;5089136;28;20031;-66
2022/09/25 10:34:15;;;;;;;4.95;2.42;;;;;;;;;;5090852;28;20024;-66
2022/09/25 10:36:45;;;;;;;6.30;3.00;;;;;;;;;;5091067;28;20107;-66
2022/09/25 10:39:42;;;;;;;3.95;2.00;;;;;;;;;;5111020;27;20450;-67
2022/09/25 10:42:29;;;;;;;5.32;2.40;;;;;;;;;;5111373;28;20038;-68
2022/09/25 10:52:13;;;;;;;3.95;2.13;;;;;;;;;;5110897;28;20088;-68
2022/09/25 10:54:40;;;;;;;4.28;1.88;;;;;;;;;;5111204;28;20081;-67
2022/09/25 10:57:17;;;;;;;3.72;2.05;;;;;;;;;;5111159;28;20020;-66
2022/09/25 10:59:49;;;;;;;2.85;1.70;;;;;;;;;;5110797;28;20108;-66
2022/09/25 11:02:36;;;;;;;7.32;2.13;;;;;;;;;;5109770;28;20016;-67
2022/09/25 11:05:03;;;;;;;2.70;1.60;;;;;;;;;;5111153;28;20106;-67
2022/09/25 11:08:48;;;;;;;4.25;2.05;;;;;;;;;;5131957;27;20463;-66
2022/09/25 11:12:22;;;;;;;3.00;1.80;;;;;;;;;;5111388;27;20474;-66
2022/09/25 11:15:01;;;;;;;3.45;2.10;;;;;;;;;;5111093;28;20032;-66
2022/09/25 11:17:30;;;;;;;5.95;1.70;;;;;;;;;;5111394;28;20020;-66
2022/09/25 11:20:17;;;;;;;2.53;1.30;;;;;;;;;;5110904;28;20024;-67
2022/09/25 11:23:03;;;;;;;4.20;1.45;;;;;;;;;;5111277;28;20044;-67
2022/09/25 11:25:48;;;;;;;1.98;1.20;;;;;;;;;;5111363;28;20035;-67
2022/09/25 11:30:11;;;;;;;3.05;1.45;;;;;;;;;;5111546;27;20477;-66
2022/09/25 11:32:38;;;;;;;2.95;1.63;;;;;;;;;;5111583;28;20552;-66
2022/09/25 11:35:24;;;;;;;5.63;2.83;;;;;;;;;;5110978;28;20016;-66
2022/09/25 11:38:04;;;;;;;2.08;1.42;;;;;;;;;;5111714;27;20393;-66
2022/09/25 11:43:18;;;;;;;3.38;1.10;;;;;;;;;;5110855;28;20078;-66
2022/09/25 11:45:47;;;;;;;3.60;1.33;;;;;;;;;;5111203;28;20048;-66
2022/09/25 11:48:23;;;;;;;3.10;1.60;;;;;;;;;;5110799;28;20051;-67
2022/09/25 11:50:56;;;;;;;2.92;1.58;;;;;;;;;;5111323;28;20032;-66
2022/09/25 11:53:35;;;;;;;2.42;1.80;;;;;;;;;;5111018;28;20012;-66
2022/09/25 11:56:11;;;;;;;3.80;2.22;;;;;;;;;;5110605;28;20023;-66
2022/09/25 11:58:46;;;;;;;3.28;2.15;;;;;;;;;;5111028;28;20047;-66
2022/09/25 12:02:08;;;;;;;2.75;1.75;;;;;;;;;;5051281;28;20422;-66
2022/09/25 12:04:54;;;;;;;3.00;1.73;;;;;;;;;;5050782;28;20025;-66
2022/09/25 12:07:39;;;;;;;4.65;1.67;;;;;;;;;;5050708;28;20033;-66
2022/09/25 12:10:20;;;;;;;4.95;2.58;;;;;;;;;;5050471;28;20040;-66
2022/09/25 12:12:46;;;;;;;3.15;1.50;;;;;;;;;;5049242;28;20470;-66
2022/09/25 12:15:31;;;;;;;4.47;2.15;;;;;;;;;;5050577;28;20025;-66
2022/09/25 12:18:19;;;;;;;4.50;2.28;;;;;;;;;;5048799;28;20385;-66
2022/09/25 12:20:50;;;;;;;5.13;1.50;;;;;;;;;;5050573;28;20065;-67
2022/09/25 12:23:33;;;;;;;3.53;1.33;;;;;;;;;;5050240;28;20021;-67
2022/09/25 12:26:08;;;;;;;2.60;1.50;;;;;;;;;;5050448;28;20049;-67
2022/09/25 12:28:52;;;;;;;3.88;1.70;;;;;;;;;;5049022;28;20029;-67
2022/09/25 12:31:54;;;;;;;5.65;1.45;;;;;;;;;;5049961;28;20029;-67
2022/09/25 12:34:20;;;;;;;2.65;1.52;;;;;;;;;;5028173;28;20049;-66
2022/09/25 12:36:56;;;;;;;3.75;1.30;;;;;;;;;;5045625;28;20557;-66
2022/09/25 12:39:24;;;;;;;2.40;1.08;;;;;;;;;;5049796;28;20038;-67
2022/09/25 12:42:12;;;;;;;4.32;1.50;;;;;;;;;;5048703;28;20036;-67
2022/09/25 12:44:48;;;;;;;3.10;1.42;;;;;;;;;;5049453;28;20025;-67
2022/09/25 12:47:24;;;;;;;3.38;1.42;;;;;;;;;;5049956;28;20032;-67
2022/09/25 12:49:55;;;;;;;3.25;1.20;;;;;;;;;;5050139;28;20424;-67
2022/09/25 12:52:26;;;;;;;3.93;1.63;;;;;;;;;;5049536;28;20025;-67
2022/09/25 12:55:04;;;;;;;4.43;1.63;;;;;;;;;;5049815;28;20057;-67
2022/09/25 12:57:30;;;;;;;2.90;1.40;;;;;;;;;;5049861;28;20017;-67
2022/09/25 13:00:02;;;;;;;3.40;1.40;;;;;;;;;;5049006;28;20036;-67
2022/09/25 13:02:28;;;;;;;;;;;;;;;;;;5050175;28;20025;-67
2022/09/25 13:05:01;;;;;;;3.50;1.50;;;;;;;;;;5048352;28;19909;-67
2022/09/25 13:07:36;;;;;;;1.30;1.02;;;;;;;;;;5049256;28;20029;-67
2022/09/25 13:10:07;;;;;;;3.72;1.60;;;;;;;;;;5048156;28;20485;-67
2022/09/25 13:12:35;;;;;;;2.38;1.55;;;;;;;;;;5040632;28;20018;-66
2022/09/25 13:15:34;;;;;;;4.20;1.85;;;;;;;;;;5034909;28;20026;-67
2022/09/25 13:18:00;;;;;;;4.65;1.77;;;;;;;;;;5024460;28;20042;-67
2022/09/25 13:20:30;;;;;;;3.90;1.73;;;;;;;;;;5035639;28;20036;-67
2022/09/25 13:23:16;;;;;;;3.13;1.60;;;;;;;;;;5036082;28;20032;-67
2022/09/25 13:25:45;;;;;;;2.50;1.20;;;;;;;;;;5034569;28;20033;-67
2022/09/25 13:28:16;;;;;;;1.80;1.30;;;;;;;;;;5035648;28;20104;-67
2022/09/25 13:30:56;;;;;;;2.38;1.23;;;;;;;;;;5036000;28;20513;-67
2022/09/25 13:33:22;;;;;;;2.40;1.30;;;;;;;;;;5035981;28;20025;-66
2022/09/25 13:35:49;;;;;;;3.08;1.48;;;;;;;;;;5035460;28;20496;-66
2022/09/25 13:40:44;;;;;;;2.40;1.38;;;;;;;;;;5112148;27;20401;-66
2022/09/25 13:43:26;;;;;;;2.80;1.55;;;;;;;;;;5071410;28;20429;-65
2022/09/25 13:46:12;;;;;;;3.78;1.50;;;;;;;;;;5070781;28;20380;-65
2022/09/25 13:48:39;;;;;;;2.55;1.55;;;;;;;;;;5052353;28;20036;-65
2022/09/25 13:51:17;;;;;;;2.80;1.70;;;;;;;;;;5053124;28;20036;-66
2022/09/25 13:56:13;;;;;;;3.08;1.60;;;;;;;;;;5111205;27;20458;-66
2022/09/25 13:58:58;;;;;;;4.13;1.60;;;;;;;;;;5111273;28;20031;-66
2022/09/25 14:01:50;;;;;;;3.80;1.77;;;;;;;;;;5111231;28;20077;-66
2022/09/25 14:04:25;;;;;;;4.17;1.60;;;;;;;;;;5108439;28;20032;-65
2022/09/25 14:06:54;;;;;;;2.90;1.50;;;;;;;;;;5111167;28;20384;-66
2022/09/25 14:09:22;;;;;;;5.05;1.50;;;;;;;;;;5109472;28;20510;-66
2022/09/25 14:12:16;;;;;;;2.95;1.38;;;;;;;;;;5109981;28;20031;-66
2022/09/25 14:14:51;;;;;;;2.35;1.45;;;;;;;;;;5109948;28;20031;-66
2022/09/25 14:17:17;;;;;;;2.40;1.50;;;;;;;;;;5109455;28;20051;-66
2022/09/25 14:19:47;;;;;;;5.57;1.88;;;;;;;;;;5109827;28;20484;-67
2022/09/25 14:22:32;;;;;;;3.88;2.35;;;;;;;;;;5109725;28;20073;-66
2022/09/25 14:24:59;;;;;;;3.38;1.73;;;;;;;;;;5110537;28;20464;-67
2022/09/25 14:27:26;;;;;;;6.30;2.22;;;;;;;;;;5110902;28;20034;-66
2022/09/25 14:30:02;;;;;;;3.50;1.58;;;;;;;;;;5110574;28;20058;-66
2022/09/25 14:32:45;;;;;;;3.38;1.65;;;;;;;;;;5109516;28;20030;-66
2022/09/25 14:35:18;;;;;;;9.10;2.70;;;;;;;;;;5110698;28;20042;-66
2022/09/25 14:37:59;;;;;;;5.78;1.80;;;;;;;;;;5110463;28;20020;-66
2022/09/25 14:40:32;;;;;;;4.88;2.10;;;;;;;;;;5110574;28;20028;-66
2022/09/25 14:43:01;;;;;;;3.67;1.73;;;;;;;;;;5110580;28;20520;-66
2022/09/25 14:45:46;;;;;;;5.35;1.95;;;;;;;;;;5108805;28;20028;-66
2022/09/25 14:48:19;;;;;;;5.80;2.15;;;;;;;;;;5109045;28;20426;-67
2022/09/25 14:50:48;;;;;;;4.20;1.90;;;;;;;;;;5109113;28;20450;-66
2022/09/25 14:53:19;;;;;;;4.95;2.30;;;;;;;;;;5109786;28;20024;-66
2022/09/25 14:55:48;;;;;;;2.50;1.70;;;;;;;;;;5110079;28;20048;-66
2022/09/25 14:58:17;;;;;;;1.92;1.40;;;;;;;;;;5109777;28;20131;-66
2022/09/25 15:00:45;;;;;;;2.88;1.50;;;;;;;;;;5110313;28;20024;-66
2022/09/25 15:03:12;;;;;;;2.17;1.58;;;;;;;;;;5110098;28;20020;-67
2022/09/25 15:05:40;;;;;;;3.70;1.92;;;;;;;;;;5106740;28;20385;-68
2022/09/25 15:08:24;;;;;;;3.30;1.85;;;;;;;;;;5096591;28;20016;-67
2022/09/25 15:11:01;;;;;;;5.22;1.65;;;;;;;;;;5096458;28;20028;-67
2022/09/25 15:13:45;;;;;;;3.83;1.70;;;;;;;;;;5111139;27;20469;-65
2022/09/25 15:17:21;;;;;;;2.22;1.38;;;;;;;;;;5111639;27;20401;-65
2022/09/25 15:19:47;;;;;;;2.75;1.58;;;;;;;;;;5111146;28;20023;-66
2022/09/25 15:22:18;;;;;;;2.53;1.58;;;;;;;;;;5111293;28;20020;-66
2022/09/25 15:25:04;;;;;;;4.97;2.25;;;;;;;;;;5111312;28;20058;-65
2022/09/25 15:27:31;;;;;;;3.60;1.98;;;;;;;;;;5109661;28;20059;-66
2022/09/25 15:29:59;;;;;;;5.40;1.80;;;;;;;;;;5109826;28;20111;-65
2022/09/25 15:32:27;;;;;;;3.70;1.98;;;;;;;;;;5111091;28;20024;-66
2022/09/25 15:35:07;;;;;;;4.03;2.05;;;;;;;;;;5110565;28;20020;-66
2022/09/25 15:37:33;;;;;;;3.47;2.10;;;;;;;;;;5111007;28;20101;-66
2022/09/25 15:40:29;;;;;;;4.10;1.90;;;;;;;;;;5110951;28;20047;-66
2022/09/25 15:42:55;;;;;;;3.15;2.03;;;;;;;;;;5092690;28;20063;-65
2022/09/25 15:46:54;;;;;;;5.20;1.95;;;;;;;;;;5112164;27;20423;-66
2022/09/25 15:49:24;;;;;;;6.57;2.92;;;;;;;;;;5109714;28;20081;-66
2022/09/25 15:51:54;;;;;;;3.90;2.42;;;;;;;;;;5109995;28;20024;-65
2022/09/25 15:54:30;;;;;;;7.35;3.20;;;;;;;;;;5111522;28;20089;-66
2022/09/25 15:56:56;;;;;;;28.63;14.07;;;;;;;;;;5111315;28;20030;-65
2022/09/25 15:59:24;;;;;;;18.50;10.25;;;;;;;;;;5111636;28;20035;-65
2022/09/25 16:05:23;;;;;;;5.80;3.55;;;;;;;;;;5112029;27;20385;-67
2022/09/25 16:07:49;;;;;;;8.32;2.38;;;;;;;;;;5110038;28;20097;-66
2022/09/25 16:10:15;;;;;;;6.50;3.00;;;;;;;;;;5110918;28;20024;-66
2022/09/25 16:12:44;;;;;;;5.55;2.50;;;;;;;;;;5111202;28;20073;-66
2022/09/25 16:15:25;;;;;;;5.13;2.45;;;;;;;;;;5109905;28;20048;-66
2022/09/25 16:17:53;;;;;;;4.05;2.28;;;;;;;;;;5110815;28;20037;-66
2022/09/25 16:20:32;;;;;;;2.90;2.22;;;;;;;;;;5112003;27;20408;-67
2022/09/25 16:23:02;;;;;;;4.22;2.47;;;;;;;;;;5111195;28;20376;-67
2022/09/25 16:28:39;;;;;;;4.68;3.13;;;;;;;;;;5112115;27;20937;-67